createdAt,value
2018-12-07T21:08:10.238Z,8.30
2018-12-07T21:11:29.267Z,8.20
2018-12-07T21:14:42.813Z,8.20
2018-12-07T21:17:44.707Z,8.20
2018-12-07T21:20:24.695Z,8.20
2018-12-07T21:22:56.343Z,8.10
2018-12-07T21:25:28.929Z,8.10
2018-12-07T21:28:00.338Z,8.10
2018-12-07T21:31:07.207Z,8.10
2018-12-07T21:33:56.746Z,8.10
2018-12-07T21:39:30.186Z,8.10
2018-12-07T21:42:02.023Z,8.10
2018-12-07T21:44:34.167Z,8.10
2018-12-07T21:47:05.856Z,8.00
2018-12-07T21:49:49.846Z,8.00
2018-12-07T21:52:30.062Z,8.00
2018-12-07T21:55:01.471Z,8.00
2018-12-07T21:57:32.929Z,7.90
2018-12-07T22:00:04.815Z,7.90
2018-12-07T22:02:36.007Z,7.90
2018-12-07T22:05:07.737Z,7.90
2018-12-07T22:07:38.958Z,7.90
2018-12-07T22:10:10.331Z,7.90
2018-12-07T22:12:41.849Z,7.90
2018-12-07T22:15:13.101Z,7.90
2018-12-07T22:17:44.052Z,7.90
2018-12-07T22:20:15.492Z,7.80
2018-12-07T22:22:46.543Z,7.80
2018-12-07T22:25:17.346Z,7.80
2018-12-07T22:27:48.304Z,7.80
2018-12-07T22:30:19.389Z,7.70
2018-12-07T22:32:50.350Z,7.70
2018-12-07T22:35:21.069Z,7.70
2018-12-07T22:37:51.994Z,7.70
2018-12-07T22:40:22.832Z,7.70
2018-12-07T22:42:54.502Z,7.70
2018-12-07T22:45:25.417Z,7.70
2018-12-07T22:47:55.974Z,7.70
2018-12-07T22:50:26.635Z,7.70
2018-12-07T22:52:57.359Z,7.70
2018-12-07T22:55:27.955Z,7.70
2018-12-07T22:57:58.659Z,7.70
2018-12-07T23:00:29.916Z,7.70
2018-12-07T23:03:00.686Z,7.70
2018-12-07T23:05:31.353Z,7.70
2018-12-07T23:08:01.945Z,7.60
2018-12-07T23:10:32.579Z,7.70
2018-12-07T23:13:03.189Z,7.60
2018-12-07T23:15:33.785Z,7.60
2018-12-07T23:18:04.354Z,7.60
2018-12-07T23:20:34.936Z,7.60
2018-12-07T23:23:05.653Z,7.50
2018-12-07T23:25:36.205Z,7.50
2018-12-07T23:28:06.798Z,7.50
2018-12-07T23:30:38.116Z,7.50
2018-12-07T23:33:08.722Z,7.50
2018-12-07T23:35:39.270Z,7.50
2018-12-07T23:38:09.855Z,7.50
2018-12-07T23:40:40.424Z,7.40
2018-12-07T23:43:11.240Z,7.40
2018-12-07T23:45:41.876Z,7.40
2018-12-07T23:48:12.561Z,7.40
2018-12-07T23:50:43.092Z,7.40
2018-12-07T23:53:13.726Z,7.40
2018-12-07T23:55:44.236Z,7.40
2018-12-07T23:58:14.891Z,7.40
